Time;durP1;ratioP1;P1;durP2;ratioP2;P2;SDS_P1;SDS_P2;PMS_P1;PMS_P2;Temp;Humidity;BMP_temperature;BMP_pressure;BME280_temperature;BME280_humidity;BME280_pressure;Samples;Min_cycle;Max_cycle;Signal;HPM_P1;HPM_P2
2024/03/07 00:02:23;;;;;;;14.85;2.80;;;;;;;7.59;99.59;101199.09;5068687;28;20063;-58
2024/03/07 00:04:51;;;;;;;17.70;4.32;;;;;;;7.59;99.68;101181.75;5064250;28;20044;-59
2024/03/07 00:07:18;;;;;;;21.10;4.70;;;;;;;7.59;99.76;101190.00;5054253;28;20490;-58
2024/03/07 00:09:47;;;;;;;23.60;3.80;;;;;;;7.59;99.90;101184.50;5068868;28;20052;-59
2024/03/07 00:12:14;;;;;;;15.40;4.03;;;;;;;7.58;99.99;101189.19;5040782;28;20406;-58
2024/03/07 00:14:42;;;;;;;17.75;3.28;;;;;;;7.58;100.00;101191.94;5069186;28;20045;-60
2024/03/07 00:17:09;;;;;;;19.92;3.72;;;;;;;7.55;100.00;101192.56;5067168;28;20079;-56
2024/03/07 00:19:36;;;;;;;16.58;3.05;;;;;;;7.52;100.00;101198.69;5065184;28;20048;-57
2024/03/07 00:22:04;;;;;;;13.82;3.70;;;;;;;7.46;100.00;101185.38;5067139;28;20052;-58
2024/03/07 00:24:31;;;;;;;15.05;3.70;;;;;;;7.42;100.00;101187.13;5066961;28;20045;-58
2024/03/07 00:26:58;;;;;;;18.90;4.65;;;;;;;7.35;100.00;101193.06;5068122;28;20037;-58
2024/03/07 00:29:28;;;;;;;22.88;6.22;;;;;;;7.32;100.00;101188.19;5068071;28;20394;-60
2024/03/07 00:31:55;;;;;;;19.92;5.00;;;;;;;7.31;100.00;101195.63;5067576;28;20045;-58
2024/03/07 00:34:23;;;;;;;17.80;2.95;;;;;;;7.31;100.00;101200.31;5068622;28;20040;-59
2024/03/07 00:36:52;;;;;;;27.52;4.53;;;;;;;7.33;100.00;101203.59;5067738;28;20052;-57
2024/03/07 00:39:20;;;;;;;19.33;3.63;;;;;;;7.35;100.00;101204.09;5050608;28;20044;-59
2024/03/07 00:41:47;;;;;;;20.70;3.17;;;;;;;7.36;100.00;101200.19;5068489;28;20055;-58
2024/03/07 00:44:14;;;;;;;15.07;3.70;;;;;;;7.40;100.00;101206.72;5067343;28;20049;-59
2024/03/07 00:46:42;;;;;;;12.00;3.85;;;;;;;7.42;100.00;101209.97;5055897;28;20074;-59
2024/03/07 00:49:09;;;;;;;12.82;3.63;;;;;;;7.44;100.00;101199.44;5066725;28;20055;-57
2024/03/07 00:51:36;;;;;;;12.65;4.40;;;;;;;7.45;100.00;101198.34;5069035;28;20055;-59
2024/03/07 00:54:06;;;;;;;13.27;2.67;;;;;;;7.47;100.00;101198.81;5067732;28;20080;-58
2024/03/07 00:56:36;;;;;;;15.32;3.15;;;;;;;7.47;100.00;101204.34;5067808;28;20130;-57
2024/03/07 00:59:03;;;;;;;16.60;4.15;;;;;;;7.49;100.00;101206.78;5062584;28;20037;-58
2024/03/07 01:01:37;;;;;;;16.83;2.72;;;;;;;7.49;100.00;101202.09;5066385;28;20055;-56
2024/03/07 01:04:05;;;;;;;14.30;2.78;;;;;;;7.50;100.00;101191.88;5054547;28;20049;-58
2024/03/07 01:06:32;;;;;;;19.23;2.83;;;;;;;7.50;100.00;101198.19;5066187;28;20059;-58
2024/03/07 01:08:59;;;;;;;21.65;4.03;;;;;;;7.51;100.00;101207.28;5064698;28;20044;-59
2024/03/07 01:11:27;;;;;;;18.75;2.92;;;;;;;7.48;100.00;101192.19;5062619;28;20040;-56
2024/03/07 01:13:55;;;;;;;19.00;4.63;;;;;;;7.47;100.00;101209.03;5064831;28;20052;-58
2024/03/07 01:16:23;;;;;;;16.05;3.15;;;;;;;7.44;100.00;101207.72;5068297;28;20056;-58
2024/03/07 01:18:50;;;;;;;16.10;3.35;;;;;;;7.43;100.00;101214.38;5065998;28;20044;-58
2024/03/07 01:21:17;;;;;;;12.15;2.10;;;;;;;7.41;100.00;101213.88;5063969;28;20048;-58
2024/03/07 01:23:45;;;;;;;15.75;3.40;;;;;;;7.39;100.00;101205.09;5066889;28;20037;-58
2024/03/07 01:26:12;;;;;;;8.23;2.40;;;;;;;7.37;100.00;101207.34;5068353;28;20071;-59
2024/03/07 01:28:41;;;;;;;22.60;3.88;;;;;;;7.35;100.00;101202.16;5067180;28;20040;-57
2024/03/07 01:31:10;;;;;;;15.48;3.65;;;;;;;7.33;100.00;101192.59;5060059;28;20056;-58
2024/03/07 01:33:37;;;;;;;14.80;3.45;;;;;;;7.32;100.00;101207.47;5067432;28;20528;-57
2024/03/07 01:36:05;;;;;;;12.98;2.55;;;;;;;7.31;100.00;101201.16;5058949;28;20079;-59
2024/03/07 01:38:32;;;;;;;15.90;3.00;;;;;;;7.32;100.00;101196.44;5067039;28;20060;-58
2024/03/07 01:40:59;;;;;;;30.10;5.68;;;;;;;7.31;100.00;101203.91;5067210;28;20504;-58
2024/03/07 01:43:27;;;;;;;23.02;2.95;;;;;;;7.30;100.00;101204.22;5066459;28;20059;-57
2024/03/07 01:45:59;;;;;;;12.32;3.03;;;;;;;7.29;100.00;101197.91;5067433;28;20063;-59
2024/03/07 01:48:28;;;;;;;16.25;3.55;;;;;;;7.29;100.00;101200.66;5054055;28;20049;-58
2024/03/07 01:50:57;;;;;;;13.57;3.20;;;;;;;7.30;100.00;101198.72;5060219;28;20044;-58
2024/03/07 01:53:26;;;;;;;15.20;3.45;;;;;;;7.31;100.00;101200.31;5057357;28;20055;-58
2024/03/07 01:55:54;;;;;;;13.98;2.72;;;;;;;7.31;100.00;101195.63;5065871;28;20517;-56
2024/03/07 01:58:22;;;;;;;18.08;2.95;;;;;;;7.32;100.00;101204.72;5066897;28;20048;-58
2024/03/07 02:00:49;;;;;;;12.40;3.40;;;;;;;7.33;100.00;101198.09;5064425;28;20057;-57
2024/03/07 02:03:17;;;;;;;13.48;4.15;;;;;;;7.33;100.00;101198.09;5058661;28;20052;-57
2024/03/07 02:05:44;;;;;;;11.23;2.65;;;;;;;7.34;100.00;101195.00;5066874;28;20037;-58
2024/03/07 02:08:12;;;;;;;19.63;4.38;;;;;;;7.34;100.00;101185.94;5067243;28;20052;-58
2024/03/07 02:10:39;;;;;;;10.68;2.00;;;;;;;7.35;100.00;101179.31;5066779;28;20477;-57
2024/03/07 02:13:07;;;;;;;12.52;3.38;;;;;;;7.35;100.00;101179.31;5063761;28;20506;-57
2024/03/07 02:15:34;;;;;;;24.30;4.03;;;;;;;7.36;100.00;101186.41;5055349;28;20045;-56
2024/03/07 02:18:01;;;;;;;21.52;4.53;;;;;;;7.36;100.00;101180.91;5065894;28;20052;-57
2024/03/07 02:20:30;;;;;;;12.43;3.00;;;;;;;7.37;100.00;101182.56;5067244;28;20040;-58
2024/03/07 02:22:57;;;;;;;16.48;3.92;;;;;;;7.35;100.00;101174.63;5064908;28;20049;-57
2024/03/07 02:25:24;;;;;;;17.33;3.17;;;;;;;7.39;100.00;101185.00;5062100;28;20051;-58
2024/03/07 02:27:52;;;;;;;19.98;3.40;;;;;;;7.39;100.00;101179.50;5066605;28;20056;-59
2024/03/07 02:30:19;;;;;;;14.63;4.03;;;;;;;7.38;100.00;101178.69;5066864;28;20048;-57
2024/03/07 02:32:51;;;;;;;15.45;2.95;;;;;;;7.38;100.00;101169.59;5064740;28;20041;-56
2024/03/07 02:35:19;;;;;;;14.60;2.78;;;;;;;7.34;100.00;101167.47;5065722;28;20494;-56
2024/03/07 02:37:46;;;;;;;13.40;3.10;;;;;;;7.33;100.00;101173.31;5065877;28;20051;-57
2024/03/07 02:40:14;;;;;;;17.45;3.35;;;;;;;7.31;100.00;101167.28;5065303;28;20054;-58
2024/03/07 02:42:42;;;;;;;13.88;3.30;;;;;;;7.29;100.00;101172.28;5064700;28;20056;-59
2024/03/07 02:45:10;;;;;;;18.70;5.13;;;;;;;7.29;100.00;101169.53;5057237;28;20438;-58
2024/03/07 02:47:38;;;;;;;17.77;3.67;;;;;;;7.29;100.00;101180.56;5065403;28;20055;-55
2024/03/07 02:50:09;;;;;;;11.93;2.72;;;;;;;7.28;100.00;101178.94;5065379;28;20067;-58
2024/03/07 02:52:36;;;;;;;23.70;3.42;;;;;;;7.28;100.00;101176.97;5066729;28;20051;-58
2024/03/07 02:55:05;;;;;;;17.50;3.78;;;;;;;7.29;100.00;101169.53;5065517;28;20041;-58
2024/03/07 02:57:32;;;;;;;15.38;3.85;;;;;;;7.27;100.00;101172.63;5066504;28;20059;-58
2024/03/07 03:00:00;;;;;;;15.65;2.80;;;;;;;7.27;100.00;101178.13;5065815;28;20037;-55
2024/03/07 03:02:27;;;;;;;10.65;3.90;;;;;;;7.26;100.00;101176.47;5098712;23;20054;-58
2024/03/07 03:04:55;;;;;;;18.73;3.97;;;;;;;7.26;100.00;101175.66;5046552;28;20528;-59
2024/03/07 03:07:22;;;;;;;11.82;2.53;;;;;;;7.25;100.00;101174.84;5047591;28;20418;-57
2024/03/07 03:09:49;;;;;;;17.83;3.50;;;;;;;7.24;100.00;101173.22;5047847;28;20144;-58
2024/03/07 03:12:16;;;;;;;18.77;4.00;;;;;;;7.24;100.00;101177.91;5046261;28;20095;-59
2024/03/07 03:14:44;;;;;;;14.65;3.45;;;;;;;7.20;100.00;101171.44;5047536;28;20455;-57
2024/03/07 03:17:11;;;;;;;17.05;4.03;;;;;;;7.20;100.00;101176.94;5045528;28;20053;-59
2024/03/07 03:19:39;;;;;;;16.08;3.10;;;;;;;7.19;100.00;101180.81;5047577;28;20045;-58
2024/03/07 03:22:08;;;;;;;17.20;2.85;;;;;;;7.19;100.00;101172.53;5046990;28;20064;-57
2024/03/07 03:24:36;;;;;;;23.30;4.25;;;;;;;7.19;100.00;101175.28;5047666;28;20414;-57
2024/03/07 03:27:05;;;;;;;17.48;3.22;;;;;;;7.18;100.00;101173.66;5047214;28;20064;-57
2024/03/07 03:29:32;;;;;;;17.65;3.55;;;;;;;7.18;100.00;101165.41;5047515;28;20056;-57
2024/03/07 03:31:59;;;;;;;18.58;3.22;;;;;;;7.18;100.00;101159.88;5046737;28;20044;-58
2024/03/07 03:34:27;;;;;;;13.18;3.40;;;;;;;7.17;100.00;101166.53;5050581;28;20398;-57
2024/03/07 03:36:54;;;;;;;18.48;2.90;;;;;;;7.18;100.00;101170.91;5033131;28;20037;-59
2024/03/07 03:39:21;;;;;;;14.25;3.05;;;;;;;7.18;100.00;101168.97;5051382;28;20057;-56
2024/03/07 03:41:48;;;;;;;12.43;3.58;;;;;;;7.20;100.00;101165.91;5044798;28;20038;-57
2024/03/07 03:44:16;;;;;;;12.98;3.10;;;;;;;7.21;100.00;101162.84;5045468;28;20052;-56
2024/03/07 03:46:44;;;;;;;18.42;4.18;;;;;;;7.24;100.00;101175.16;5050073;28;20049;-58
2024/03/07 03:49:11;;;;;;;19.90;3.10;;;;;;;7.24;100.00;101158.66;5050627;28;20057;-57
2024/03/07 03:51:38;;;;;;;15.18;2.70;;;;;;;7.23;100.00;101159.75;5050873;28;20045;-57
2024/03/07 03:54:06;;;;;;;19.20;4.43;;;;;;;7.22;100.00;101161.72;5050984;28;20064;-59
2024/03/07 03:56:33;;;;;;;16.90;3.47;;;;;;;7.21;100.00;101156.50;5049989;28;20056;-58
2024/03/07 03:59:00;;;;;;;12.43;2.80;;;;;;;7.22;100.00;101158.16;5050873;28;20061;-56
2024/03/07 04:01:27;;;;;;;21.83;4.28;;;;;;;7.21;100.00;101160.09;5050768;28;20052;-57
2024/03/07 04:03:55;;;;;;;10.18;2.15;;;;;;;7.20;100.00;101161.19;5047590;28;20049;-57
2024/03/07 04:06:22;;;;;;;16.38;3.35;;;;;;;7.19;100.00;101162.34;5040363;28;20419;-58
2024/03/07 04:08:51;;;;;;;12.25;3.90;;;;;;;7.18;100.00;101165.41;5047371;28;20053;-58
2024/03/07 04:11:19;;;;;;;17.52;3.42;;;;;;;7.17;100.00;101161.03;5050708;28;20406;-58
2024/03/07 04:13:46;;;;;;;12.30;3.33;;;;;;;7.18;100.00;101148.88;5046990;28;20049;-57
2024/03/07 04:16:14;;;;;;;10.52;3.30;;;;;;;7.16;100.00;101171.22;5050025;28;20048;-57
2024/03/07 04:18:41;;;;;;;19.05;3.67;;;;;;;7.15;100.00;101177.03;5048935;28;20060;-57
2024/03/07 04:21:09;;;;;;;12.77;3.22;;;;;;;7.14;100.00;101172.66;5049794;28;20053;-57
2024/03/07 04:23:39;;;;;;;21.45;2.85;;;;;;;7.14;100.00;101189.19;5044618;28;20076;-60
2024/03/07 04:26:08;;;;;;;17.50;3.88;;;;;;;7.15;100.00;101190.78;5050499;28;20409;-57
2024/03/07 04:28:36;;;;;;;14.18;2.88;;;;;;;7.16;100.00;101193.25;5049792;28;20041;-56
2024/03/07 04:31:03;;;;;;;17.60;4.57;;;;;;;7.17;100.00;101194.06;5050341;28;20053;-57
2024/03/07 04:33:30;;;;;;;19.40;2.90;;;;;;;7.16;100.00;101186.94;5050305;28;20040;-57
2024/03/07 04:35:58;;;;;;;13.52;3.67;;;;;;;7.16;100.00;101189.69;5050396;28;20056;-57
2024/03/07 04:38:28;;;;;;;12.90;4.03;;;;;;;7.15;100.00;101191.63;5031136;28;20048;-58
2024/03/07 04:40:55;;;;;;;15.60;3.17;;;;;;;7.16;100.00;101189.69;5049213;28;20052;-58
2024/03/07 04:43:22;;;;;;;16.60;3.13;;;;;;;7.14;100.00;101194.69;5044280;28;20398;-58
2024/03/07 04:45:50;;;;;;;11.00;2.53;;;;;;;7.14;100.00;101194.69;5049274;28;20037;-59
2024/03/07 04:48:17;;;;;;;15.48;2.63;;;;;;;7.14;100.00;101194.69;5045680;28;20055;-55
2024/03/07 04:50:45;;;;;;;27.00;4.50;;;;;;;7.15;100.00;101201.81;5049373;28;20493;-56
2024/03/07 04:53:12;;;;;;;20.15;4.47;;;;;;;7.14;100.00;101220.28;5049573;28;20056;-57
2024/03/07 04:55:39;;;;;;;21.83;3.50;;;;;;;7.14;100.00;101209.28;5050174;28;20045;-56
2024/03/07 04:58:06;;;;;;;12.30;2.53;;;;;;;7.14;100.00;101217.53;5049637;28;20045;-59
2024/03/07 05:00:34;;;;;;;22.45;3.85;;;;;;;7.14;100.00;101216.72;5048150;28;20045;-59
2024/03/07 05:03:01;;;;;;;14.73;3.05;;;;;;;7.14;100.00;101214.78;5049158;28;20819;-58
2024/03/07 05:05:28;;;;;;;16.95;2.83;;;;;;;7.15;100.00;101218.31;5050269;28;20049;-57
2024/03/07 05:07:58;;;;;;;20.50;5.28;;;;;;;7.13;100.00;101215.91;5048539;28;20490;-59
2024/03/07 05:10:28;;;;;;;15.48;3.80;;;;;;;7.13;100.00;101221.41;5048495;28;20045;-57
2024/03/07 05:12:58;;;;;;;15.98;3.28;;;;;;;7.13;100.00;101223.34;5049412;28;20061;-57
2024/03/07 05:15:25;;;;;;;15.02;3.20;;;;;;;7.12;100.00;101219.75;5043630;28;20041;-58
2024/03/07 05:17:55;;;;;;;17.63;2.67;;;;;;;7.12;100.00;101213.47;5048750;28;20045;-55
2024/03/07 05:20:23;;;;;;;11.05;3.45;;;;;;;7.13;100.00;101221.41;5048907;28;20052;-56
2024/03/07 05:22:50;;;;;;;24.65;4.47;;;;;;;7.13;100.00;101218.66;5049007;28;20057;-58
2024/03/07 05:25:19;;;;;;;12.25;3.72;;;;;;;7.13;100.00;101226.09;5048949;28;20056;-57
2024/03/07 05:27:50;;;;;;;19.77;3.60;;;;;;;7.14;100.00;101220.28;5049203;28;20041;-58
2024/03/07 05:30:17;;;;;;;20.02;2.72;;;;;;;7.13;100.00;101221.41;5048055;28;20053;-57
2024/03/07 05:32:44;;;;;;;15.27;4.18;;;;;;;7.14;100.00;101230.50;5049726;28;20056;-58
2024/03/07 05:35:12;;;;;;;16.40;3.95;;;;;;;7.14;100.00;101227.72;5047861;28;20049;-58
2024/03/07 05:37:46;;;;;;;13.77;2.70;;;;;;;7.12;100.00;101225.28;5049516;28;20049;-57
2024/03/07 05:40:14;;;;;;;12.73;2.83;;;;;;;7.12;100.00;101216.22;5044829;28;20208;-57
2024/03/07 05:42:41;;;;;;;19.30;4.53;;;;;;;7.13;100.00;101228.84;5049139;28;20049;-59
2024/03/07 05:45:10;;;;;;;20.35;3.30;;;;;;;7.12;100.00;101221.72;5048588;28;20406;-57
2024/03/07 05:47:37;;;;;;;11.02;4.05;;;;;;;7.11;100.00;101222.84;5049206;28;20053;-57
2024/03/07 05:50:07;;;;;;;17.52;3.80;;;;;;;7.10;100.00;101227.53;5048629;28;20052;-59
2024/03/07 05:52:35;;;;;;;16.88;3.38;;;;;;;7.10;100.00;101222.03;5048181;28;20045;-57
2024/03/07 05:55:06;;;;;;;13.85;3.63;;;;;;;7.10;100.00;101221.19;5048159;28;20041;-57
2024/03/07 05:57:34;;;;;;;9.90;2.78;;;;;;;7.10;100.00;101221.19;5036570;28;20045;-57
2024/03/07 06:00:01;;;;;;;16.25;4.55;;;;;;;7.10;100.00;101226.72;5036703;28;20053;-55
2024/03/07 06:02:28;;;;;;;14.55;4.03;;;;;;;7.10;100.00;101222.03;5042228;28;20060;-59
2024/03/07 06:04:56;;;;;;;11.77;3.10;;;;;;;7.10;100.00;101232.22;5030501;28;20053;-59
2024/03/07 06:07:24;;;;;;;18.73;5.38;;;;;;;7.10;100.00;101226.72;5038383;28;20053;-58
2024/03/07 06:09:51;;;;;;;16.13;3.40;;;;;;;7.09;100.00;101227.84;5048586;28;20048;-57
2024/03/07 06:12:18;;;;;;;19.55;3.15;;;;;;;7.09;100.00;101219.59;5047795;28;20045;-57
2024/03/07 06:14:54;;;;;;;12.68;3.08;;;;;;;7.09;100.00;101225.09;5047772;28;20067;-58
2024/03/07 06:17:23;;;;;;;19.25;4.97;;;;;;;7.08;100.00;101223.47;5044882;28;20045;-57
2024/03/07 06:19:50;;;;;;;10.68;3.25;;;;;;;7.06;100.00;101222.97;5041276;28;20410;-56
2024/03/07 06:22:18;;;;;;;12.02;3.80;;;;;;;7.05;100.00;101224.06;5046280;28;20413;-57
2024/03/07 06:24:46;;;;;;;12.35;3.28;;;;;;;7.05;100.00;101218.56;5046199;28;20049;-59
2024/03/07 06:27:26;;;;;;;9.35;3.13;;;;;;;7.04;100.00;101223.25;5047817;28;20340;-57
2024/03/07 06:29:54;;;;;;;17.52;3.15;;;;;;;7.02;100.00;101219.19;5047912;28;20056;-57
2024/03/07 06:32:22;;;;;;;6.38;2.88;;;;;;;7.02;100.00;101219.19;5044883;28;20645;-57
2024/03/07 06:34:50;;;;;;;15.90;3.10;;;;;;;7.00;100.00;101216.75;5047634;28;20059;-58
2024/03/07 06:37:18;;;;;;;12.10;4.10;;;;;;;6.98;100.00;101223.69;5029990;28;20048;-59
2024/03/07 06:39:46;;;;;;;22.02;5.50;;;;;;;6.96;100.00;101220.44;5038382;28;20052;-58
2024/03/07 06:42:15;;;;;;;12.77;2.88;;;;;;;6.93;100.00;101221.06;5047402;28;20064;-57
2024/03/07 06:44:43;;;;;;;20.23;4.57;;;;;;;6.89;100.00;101223.59;5042943;28;20044;-59
2024/03/07 06:47:10;;;;;;;16.17;3.83;;;;;;;6.86;100.00;101220.69;5040796;28;20068;-57
2024/03/07 06:49:39;;;;;;;13.75;3.47;;;;;;;6.85;100.00;101224.53;5033720;28;20060;-58
2024/03/07 06:52:08;;;;;;;23.75;4.10;;;;;;;6.84;100.00;101228.41;5046230;28;20052;-57
2024/03/07 06:54:35;;;;;;;11.32;3.80;;;;;;;6.84;100.00;101228.41;5048728;28;20068;-57
2024/03/07 06:57:03;;;;;;;9.65;3.92;;;;;;;6.82;100.00;101225.16;5047424;28;20041;-59
2024/03/07 06:59:31;;;;;;;11.88;3.05;;;;;;;6.78;100.00;101230.44;5038450;28;20410;-57
2024/03/07 07:01:59;;;;;;;12.75;3.33;;;;;;;6.76;100.00;101232.69;5047101;28;20053;-57
2024/03/07 07:04:41;;;;;;;11.13;4.20;;;;;;;6.74;100.00;101224.75;5048724;28;20420;-56
2024/03/07 07:07:11;;;;;;;11.55;3.53;;;;;;;6.73;100.00;101223.13;5047402;28;20418;-56
2024/03/07 07:09:39;;;;;;;13.35;3.22;;;;;;;6.74;100.00;101218.44;5051038;28;20059;-57
2024/03/07 07:12:08;;;;;;;12.85;3.90;;;;;;;6.74;100.00;101221.19;5052027;28;20068;-57
2024/03/07 07:14:36;;;;;;;11.15;4.15;;;;;;;6.72;100.00;101224.22;5052074;28;20419;-56
2024/03/07 07:17:04;;;;;;;22.60;7.80;;;;;;;6.70;100.00;101229.25;5052140;28;20051;-57
2024/03/07 07:19:34;;;;;;;20.55;7.75;;;;;;;6.69;100.00;101227.63;5034466;28;20406;-58
2024/03/07 07:22:01;;;;;;;34.15;13.85;;;;;;;6.70;100.00;101226.47;5051604;28;20052;-58
2024/03/07 07:24:29;;;;;;;75.13;29.20;;;;;;;6.70;100.00;101220.97;5051461;28;20402;-58
2024/03/07 07:26:57;;;;;;;50.67;18.02;;;;;;;6.73;100.00;101222.31;5038097;28;20060;-57
2024/03/07 07:29:24;;;;;;;37.28;11.02;;;;;;;6.74;100.00;101227.50;5051641;28;20064;-57
2024/03/07 07:31:51;;;;;;;25.23;8.98;;;;;;;6.77;100.00;101233.53;5045777;28;20068;-59
2024/03/07 07:34:19;;;;;;;20.55;6.50;;;;;;;6.79;100.00;101231.25;5051604;28;20044;-57
2024/03/07 07:36:46;;;;;;;17.88;6.70;;;;;;;6.81;100.00;101235.34;5039524;28;20395;-57
2024/03/07 07:39:16;;;;;;;14.85;4.80;;;;;;;6.83;100.00;101235.03;5051209;28;20402;-59
2024/03/07 07:41:44;;;;;;;15.55;6.07;;;;;;;6.84;100.00;101240.22;5046380;28;20060;-57
2024/03/07 07:44:11;;;;;;;11.73;4.95;;;;;;;6.84;100.00;101236.66;5051490;28;20053;-58
2024/03/07 07:46:40;;;;;;;9.65;4.43;;;;;;;6.85;100.00;101236.38;5050144;28;20049;-57
2024/03/07 07:49:07;;;;;;;15.23;5.13;;;;;;;6.87;100.00;101233.28;5029733;28;20041;-57
2024/03/07 07:51:35;;;;;;;16.85;6.85;;;;;;;6.88;100.00;101232.19;5038692;28;20049;-56
2024/03/07 07:54:03;;;;;;;10.60;5.28;;;;;;;6.89;100.00;101236.53;5032645;28;20049;-57
2024/03/07 07:56:31;;;;;;;16.00;5.18;;;;;;;6.89;100.00;101242.06;5047171;28;20392;-58
2024/03/07 07:58:58;;;;;;;15.60;5.72;;;;;;;6.91;100.00;101245.34;5045391;28;20429;-59
2024/03/07 08:01:27;;;;;;;22.52;8.00;;;;;;;6.91;100.00;101239.81;5050710;28;20060;-57
2024/03/07 08:03:54;;;;;;;14.93;7.00;;;;;;;6.91;100.00;101228.81;5051103;28;20497;-58
2024/03/07 08:06:22;;;;;;;15.85;6.70;;;;;;;6.93;100.00;101252.16;5050658;28;20041;-57
2024/03/07 08:08:50;;;;;;;17.20;6.68;;;;;;;6.95;100.00;101241.66;5037722;28;20052;-57
2024/03/07 08:11:17;;;;;;;19.50;6.10;;;;;;;6.99;100.00;101247.34;5050664;28;20052;-58
2024/03/07 08:13:47;;;;;;;13.93;6.13;;;;;;;7.02;100.00;101243.97;5050487;28;20411;-57
2024/03/07 08:16:14;;;;;;;17.17;5.18;;;;;;;7.06;100.00;101234.78;5048684;28;20051;-58
2024/03/07 08:18:42;;;;;;;9.73;5.88;;;;;;;7.09;100.00;101236.94;5037720;28;20061;-59
2024/03/07 08:21:13;;;;;;;19.08;6.60;;;;;;;7.09;100.00;101241.63;5049406;28;20052;-58
2024/03/07 08:23:41;;;;;;;14.75;6.47;;;;;;;7.10;100.00;101232.22;5046973;28;20055;-58
2024/03/07 08:26:08;;;;;;;14.32;5.55;;;;;;;7.11;100.00;101231.09;5047297;28;20045;-57
2024/03/07 08:28:36;;;;;;;19.88;6.03;;;;;;;7.10;100.00;101238.53;5050275;28;20053;-57
2024/03/07 08:31:04;;;;;;;10.63;5.25;;;;;;;7.11;100.00;101240.19;5047415;28;20048;-57
2024/03/07 08:33:33;;;;;;;15.18;5.97;;;;;;;7.13;100.00;101231.59;5050176;28;20075;-58
2024/03/07 08:36:01;;;;;;;13.13;5.45;;;;;;;7.14;100.00;101228.56;5050456;28;20053;-58
2024/03/07 08:38:28;;;;;;;17.75;4.97;;;;;;;7.19;100.00;101233.13;5036183;28;20045;-60
2024/03/07 08:40:56;;;;;;;10.18;5.15;;;;;;;7.22;100.00;101235.25;5050457;28;20049;-59
2024/03/07 08:43:24;;;;;;;15.85;7.53;;;;;;;7.28;100.00;101234.03;5048525;28;20053;-57
2024/03/07 08:45:51;;;;;;;10.38;5.03;;;;;;;7.32;100.00;101224.81;5037596;28;20049;-59
2024/03/07 08:48:19;;;;;;;7.22;4.85;;;;;;;7.39;100.00;101232.63;5049361;28;20414;-58
2024/03/07 08:50:47;;;;;;;15.05;5.30;;;;;;;7.43;100.00;101230.91;5050757;28;20407;-56
2024/03/07 08:53:15;;;;;;;11.90;5.60;;;;;;;7.45;100.00;101236.91;5046223;28;20048;-58
2024/03/07 08:55:42;;;;;;;11.68;5.80;;;;;;;7.48;100.00;101233.53;5049497;28;20082;-58
2024/03/07 08:58:10;;;;;;;11.57;4.90;;;;;;;7.51;100.00;101230.16;5050105;28;20049;-59
2024/03/07 09:00:37;;;;;;;12.57;4.95;;;;;;;7.54;100.00;101237.78;5036791;28;20049;-57
2024/03/07 09:03:09;;;;;;;8.77;5.18;;;;;;;7.54;100.00;101236.97;5050077;28;20068;-59
2024/03/07 09:05:39;;;;;;;14.07;5.43;;;;;;;7.54;100.00;101234.22;5035942;28;20061;-59
2024/03/07 09:08:07;;;;;;;14.20;6.68;;;;;;;7.51;100.00;101237.59;5044261;28;20052;-59
2024/03/07 09:10:35;;;;;;;14.77;5.72;;;;;;;7.52;100.00;101233.72;5015872;28;20033;-59
2024/03/07 09:13:02;;;;;;;16.70;5.50;;;;;;;7.49;100.00;101246.19;5049577;28;20049;-58
2024/03/07 09:15:30;;;;;;;7.57;4.38;;;;;;;7.49;100.00;101240.69;5036268;28;20048;-58
2024/03/07 09:17:57;;;;;;;8.48;5.03;;;;;;;7.49;100.00;101237.91;5048681;28;20048;-57
2024/03/07 09:20:26;;;;;;;10.32;6.07;;;;;;;7.53;100.00;101249.94;5043057;28;20042;-57
2024/03/07 09:22:54;;;;;;;11.93;4.90;;;;;;;7.54;100.00;101242.47;5041885;28;20045;-57
2024/03/07 09:25:24;;;;;;;12.50;5.90;;;;;;;7.55;100.00;101238.59;5049265;28;20068;-56
2024/03/07 09:27:54;;;;;;;9.30;5.18;;;;;;;7.57;100.00;101233.59;5049364;28;20053;-57
2024/03/07 09:30:25;;;;;;;12.48;5.78;;;;;;;7.60;100.00;101242.03;5036114;28;20090;-58
2024/03/07 09:32:57;;;;;;;12.27;5.75;;;;;;;7.61;100.00;101249.19;5044753;28;20060;-60
2024/03/07 09:35:24;;;;;;;13.55;7.45;;;;;;;7.62;100.00;101244.50;5049384;28;20041;-59
2024/03/07 09:37:53;;;;;;;13.60;5.10;;;;;;;7.65;100.00;101244.66;5035658;28;20407;-58
2024/03/07 09:40:24;;;;;;;14.15;6.30;;;;;;;7.69;100.00;101247.59;5049174;28;20458;-59
2024/03/07 09:42:54;;;;;;;10.52;6.18;;;;;;;7.71;100.00;101246.16;5048895;28;20049;-57
2024/03/07 09:45:28;;;;;;;18.45;5.57;;;;;;;7.75;100.00;101249.94;5038319;28;20431;-57
2024/03/07 09:47:56;;;;;;;20.08;7.03;;;;;;;7.82;100.00;101252.25;5047385;28;20684;-58
2024/03/07 09:50:27;;;;;;;14.98;6.20;;;;;;;7.87;100.00;101254.88;5049318;28;20056;-58
2024/03/07 09:52:58;;;;;;;19.65;8.43;;;;;;;7.92;100.00;101243.69;5048730;28;20037;-57
2024/03/07 09:55:25;;;;;;;19.50;9.60;;;;;;;7.96;100.00;101251.03;5049188;28;20406;-57
2024/03/07 09:57:55;;;;;;;14.48;7.03;;;;;;;7.96;100.00;101251.03;5036299;28;20044;-57
2024/03/07 10:00:29;;;;;;;13.52;5.68;;;;;;;8.01;100.00;101243.75;5034920;28;20049;-57
2024/03/07 10:03:08;;;;;;;13.88;7.18;;;;;;;8.06;100.00;101251.91;5035448;28;20053;-59
2024/03/07 10:05:37;;;;;;;13.55;6.22;;;;;;;8.08;100.00;101252.38;5048427;28;20068;-57
2024/03/07 10:08:06;;;;;;;11.90;5.22;;;;;;;8.03;99.89;101255.28;5040328;28;20057;-60
2024/03/07 10:10:35;;;;;;;15.48;6.57;;;;;;;7.98;99.68;101248.78;5048202;28;20048;-59
2024/03/07 10:13:02;;;;;;;14.32;6.45;;;;;;;7.92;99.58;101250.03;5040281;28;20064;-57
2024/03/07 10:15:33;;;;;;;10.73;6.07;;;;;;;7.88;99.40;101248.22;5047815;28;20059;-58
2024/03/07 10:18:00;;;;;;;15.43;6.63;;;;;;;7.84;99.60;101250.78;5048404;28;20045;-60
2024/03/07 10:20:29;;;;;;;13.63;6.30;;;;;;;7.89;99.78;101258.09;5047378;28;20044;-57
2024/03/07 10:22:57;;;;;;;14.48;6.85;;;;;;;7.93;99.85;101256.38;5048097;28;20407;-60
2024/03/07 10:25:27;;;;;;;13.63;7.07;;;;;;;7.98;99.51;101254.28;5048514;28;20133;-57
2024/03/07 10:27:57;;;;;;;11.52;5.43;;;;;;;8.06;99.25;101249.13;5048347;28;20049;-58
2024/03/07 10:30:25;;;;;;;13.48;6.25;;;;;;;8.11;99.27;101247.06;5048307;28;20053;-57
2024/03/07 10:32:57;;;;;;;13.90;6.40;;;;;;;8.18;99.35;101252.13;5048633;28;20049;-58
2024/03/07 10:35:28;;;;;;;12.60;6.15;;;;;;;8.32;99.31;101250.09;5041252;28;20040;-57
2024/03/07 10:38:00;;;;;;;14.77;6.70;;;;;;;8.54;99.15;101241.78;5048538;28;20057;-59
2024/03/07 10:40:29;;;;;;;13.35;5.63;;;;;;;8.76;98.65;101238.09;5048282;28;20069;-58
2024/03/07 10:43:02;;;;;;;19.10;7.20;;;;;;;8.92;98.25;101248.34;5047605;28;21758;-59
2024/03/07 10:45:34;;;;;;;11.85;6.55;;;;;;;9.01;98.15;101243.66;5048620;28;20068;-58
2024/03/07 10:48:08;;;;;;;9.45;5.13;;;;;;;9.05;97.77;101244.63;5035299;28;20045;-59
2024/03/07 10:51:00;;;;;;;11.32;5.43;;;;;;;9.03;97.51;101246.09;5047703;28;20139;-59
2024/03/07 10:53:46;;;;;;;16.02;6.25;;;;;;;8.94;97.83;101246.09;5045474;28;20056;-58
2024/03/07 10:56:36;;;;;;;23.10;11.93;;;;;;;8.95;98.25;101239.44;5046989;28;20284;-57
2024/03/07 10:59:25;;;;;;;12.00;6.63;;;;;;;9.08;98.04;101246.75;5034192;28;20061;-57
2024/03/07 11:01:55;;;;;;;11.55;5.85;;;;;;;9.03;96.91;101241.41;5036840;28;20392;-57
2024/03/07 11:04:24;;;;;;;8.60;5.72;;;;;;;8.92;96.29;101240.06;5041268;28;20388;-59
2024/03/07 11:06:52;;;;;;;17.45;7.78;;;;;;;8.87;96.59;101239.44;5039874;28;20049;-61
2024/03/07 11:09:23;;;;;;;16.40;6.28;;;;;;;8.76;95.89;101241.69;5046878;28;20049;-58
2024/03/07 11:11:51;;;;;;;10.25;4.85;;;;;;;8.62;95.38;101238.22;5046933;28;20064;-59
2024/03/07 11:14:19;;;;;;;14.43;5.90;;;;;;;8.59;95.72;101241.63;5047353;28;20136;-58
2024/03/07 11:16:48;;;;;;;13.95;6.00;;;;;;;8.60;95.36;101242.44;5047255;28;20071;-54
2024/03/07 11:19:18;;;;;;;16.02;6.30;;;;;;;8.51;94.58;101239.66;5038824;28;20053;-59
2024/03/07 11:21:45;;;;;;;15.05;5.90;;;;;;;8.45;94.86;101240.91;5041729;28;20082;-59
2024/03/07 11:24:28;;;;;;;11.38;5.78;;;;;;;8.46;95.07;101234.28;5047581;28;20048;-58
2024/03/07 11:26:56;;;;;;;;;;;;;;;8.51;94.90;101228.59;5047073;28;20048;-58